createdAt,value
2019-02-03T16:06:39.456Z,20.66
2019-02-03T16:08:53.741Z,20.43
2019-02-03T16:19:30.077Z,20.31
2019-02-03T16:20:41.104Z,20.23
2019-02-03T16:31:17.489Z,19.91
2019-02-03T16:41:52.781Z,19.69
2019-02-03T16:43:02.930Z,19.68
2019-02-03T16:44:13.077Z,19.67
2019-02-03T16:45:23.194Z,19.66
2019-02-03T16:55:59.402Z,19.58
2019-02-03T17:06:34.590Z,19.51
2019-02-03T17:17:09.745Z,19.47
2019-02-03T17:27:44.877Z,19.47
2019-02-03T17:38:20.008Z,19.54
2019-02-03T17:48:55.163Z,19.59
2019-02-03T17:59:30.332Z,19.66
2019-02-03T18:10:05.491Z,19.64
2019-02-03T18:20:40.706Z,19.59
2019-02-03T18:31:15.910Z,19.52
2019-02-03T18:41:51.029Z,19.47
2019-02-03T18:52:26.140Z,19.47
2019-02-03T19:03:01.242Z,19.47
2019-02-03T19:13:36.353Z,19.45
2019-02-03T19:24:11.463Z,19.41
2019-02-03T19:34:46.570Z,19.34
2019-02-03T19:45:21.635Z,19.26
2019-02-03T19:55:56.688Z,19.17
2019-02-03T20:06:31.730Z,19.16
2019-02-03T20:17:06.785Z,19.16
2019-02-03T20:27:41.843Z,19.19
2019-02-03T20:38:16.889Z,19.19
2019-02-03T20:48:51.936Z,19.16
2019-02-03T20:59:26.973Z,19.12
2019-02-03T21:10:02.054Z,19.10
2019-02-03T21:20:37.061Z,19.06
2019-02-03T21:31:12.048Z,19.02
2019-02-03T21:41:47.104Z,18.94
2019-02-03T21:52:22.061Z,18.90
2019-02-03T22:02:57.006Z,18.86
2019-02-03T22:13:31.967Z,18.82
2019-02-03T22:24:06.886Z,18.80
2019-02-03T22:34:41.804Z,18.77
2019-02-03T22:45:16.718Z,18.76
2019-02-03T22:55:51.613Z,18.72
2019-02-03T23:06:26.520Z,18.67
2019-02-03T23:17:01.392Z,18.62
2019-02-03T23:27:36.258Z,18.59
2019-02-03T23:38:11.127Z,18.54
2019-02-03T23:48:45.971Z,18.51
2019-02-03T23:59:20.797Z,18.48
